sensor_id;sensor_type;location;lat;lon;timestamp;pressure;altitude;pressure_sealevel;temperature;humidity
73383;BME280;61600;48.126;11.542;2023-06-22T00:01:06;95675.34;;;26.03;49.37
73383;BME280;61600;48.126;11.542;2023-06-22T00:03:32;95670.53;;;26.00;49.74
73383;BME280;61600;48.126;11.542;2023-06-22T00:05:57;95661.78;;;26.02;49.06
73383;BME280;61600;48.126;11.542;2023-06-22T00:08:23;95658.66;;;26.07;49.23
73383;BME280;61600;48.126;11.542;2023-06-22T00:10:49;95666.56;;;26.01;49.54
73383;BME280;61600;48.126;11.542;2023-06-22T00:13:15;95679.94;;;25.85;50.37
73383;BME280;61600;48.126;11.542;2023-06-22T00:15:41;95675.44;;;25.73;50.10
73383;BME280;61600;48.126;11.542;2023-06-22T00:18:08;95686.41;;;25.93;49.83
73383;BME280;61600;48.126;11.542;2023-06-22T00:20:34;95675.03;;;25.71;49.86
73383;BME280;61600;48.126;11.542;2023-06-22T00:23:03;95671.88;;;25.76;50.42
73383;BME280;61600;48.126;11.542;2023-06-22T00:25:38;95675.97;;;25.86;49.61
73383;BME280;61600;48.126;11.542;2023-06-22T00:28:07;95671.19;;;25.87;50.02
73383;BME280;61600;48.126;11.542;2023-06-22T00:30:33;95671.16;;;25.83;49.65
73383;BME280;61600;48.126;11.542;2023-06-22T00:32:59;95675.09;;;25.78;49.84
73383;BME280;61600;48.126;11.542;2023-06-22T00:35:26;95673.91;;;25.79;49.60
73383;BME280;61600;48.126;11.542;2023-06-22T00:37:59;95680.34;;;25.87;50.06
73383;BME280;61600;48.126;11.542;2023-06-22T00:40:33;95675.03;;;25.71;50.32
73383;BME280;61600;48.126;11.542;2023-06-22T00:42:59;95680.03;;;25.59;49.85
73383;BME280;61600;48.126;11.542;2023-06-22T00:45:26;95683.72;;;25.66;50.40
73383;BME280;61600;48.126;11.542;2023-06-22T00:47:52;95668.22;;;25.69;49.54
73383;BME280;61600;48.126;11.542;2023-06-22T00:50:20;95661.38;;;25.63;50.74
73383;BME280;61600;48.126;11.542;2023-06-22T00:52:52;95667.41;;;25.35;51.33
73383;BME280;61600;48.126;11.542;2023-06-22T00:55:20;95668.53;;;25.30;51.03
73383;BME280;61600;48.126;11.542;2023-06-22T00:57:47;95673.06;;;25.12;51.41
73383;BME280;61600;48.126;11.542;2023-06-22T01:00:14;95665.41;;;25.35;50.90
73383;BME280;61600;48.126;11.542;2023-06-22T01:02:43;95664.63;;;25.35;51.03
73383;BME280;61600;48.126;11.542;2023-06-22T01:05:13;95655.81;;;25.29;50.95
73383;BME280;61600;48.126;11.542;2023-06-22T01:10:31;95649.66;;;25.17;51.18
73383;BME280;61600;48.126;11.542;2023-06-22T01:13:07;95647.81;;;24.98;51.68
73383;BME280;61600;48.126;11.542;2023-06-22T01:15:37;95647.91;;;25.05;51.48
73383;BME280;61600;48.126;11.542;2023-06-22T01:18:05;95639.56;;;25.05;51.34
73383;BME280;61600;48.126;11.542;2023-06-22T01:20:34;95639.69;;;25.16;50.95
73383;BME280;61600;48.126;11.542;2023-06-22T01:23:09;95630.25;;;25.24;50.32
73383;BME280;61600;48.126;11.542;2023-06-22T01:25:53;95637.00;;;25.23;50.77
73383;BME280;61600;48.126;11.542;2023-06-22T01:28:38;95633.69;;;25.10;51.29
73383;BME280;61600;48.126;11.542;2023-06-22T01:31:04;95631.13;;;24.98;51.27
73383;BME280;61600;48.126;11.542;2023-06-22T01:33:34;95636.03;;;25.08;51.49
73383;BME280;61600;48.126;11.542;2023-06-22T01:36:01;95629.38;;;25.16;50.83
73383;BME280;61600;48.126;11.542;2023-06-22T01:38:29;95627.25;;;25.06;51.08
73383;BME280;61600;48.126;11.542;2023-06-22T01:40:57;95616.97;;;25.10;50.71
73383;BME280;61600;48.126;11.542;2023-06-22T01:43:25;95611.75;;;25.09;50.74
73383;BME280;61600;48.126;11.542;2023-06-22T01:45:51;95621.59;;;24.99;51.50
73383;BME280;61600;48.126;11.542;2023-06-22T01:48:17;95613.63;;;24.98;51.52
73383;BME280;61600;48.126;11.542;2023-06-22T01:50:43;95617.06;;;24.88;52.28
73383;BME280;61600;48.126;11.542;2023-06-22T01:53:09;95620.16;;;24.82;52.53
73383;BME280;61600;48.126;11.542;2023-06-22T01:55:34;95614.69;;;24.86;52.66
73383;BME280;61600;48.126;11.542;2023-06-22T01:58:00;95611.88;;;24.86;52.20
73383;BME280;61600;48.126;11.542;2023-06-22T02:00:27;95612.75;;;24.90;52.20
73383;BME280;61600;48.126;11.542;2023-06-22T02:05:26;95633.22;;;24.78;51.94
73383;BME280;61600;48.126;11.542;2023-06-22T02:08:21;95619.97;;;24.68;52.95
73383;BME280;61600;48.126;11.542;2023-06-22T02:10:48;95626.34;;;24.69;52.96
73383;BME280;61600;48.126;11.542;2023-06-22T02:13:15;95624.47;;;24.50;53.82
73383;BME280;61600;48.126;11.542;2023-06-22T02:15:41;95633.63;;;24.51;53.15
73383;BME280;61600;48.126;11.542;2023-06-22T02:18:07;95635.75;;;24.34;54.26
73383;BME280;61600;48.126;11.542;2023-06-22T02:20:36;95639.00;;;24.40;53.35
73383;BME280;61600;48.126;11.542;2023-06-22T02:23:02;95633.88;;;24.42;53.73
73383;BME280;61600;48.126;11.542;2023-06-22T02:25:28;95627.03;;;24.36;54.47
73383;BME280;61600;48.126;11.542;2023-06-22T02:27:54;95628.69;;;24.41;54.48
73383;BME280;61600;48.126;11.542;2023-06-22T02:30:19;95638.66;;;24.42;54.52
73383;BME280;61600;48.126;11.542;2023-06-22T02:32:45;95633.88;;;24.42;54.26
73383;BME280;61600;48.126;11.542;2023-06-22T02:35:11;95641.00;;;24.40;54.04
73383;BME280;61600;48.126;11.542;2023-06-22T02:37:37;95643.06;;;24.20;54.82
73383;BME280;61600;48.126;11.542;2023-06-22T02:40:10;95652.28;;;24.24;55.21
73383;BME280;61600;48.126;11.542;2023-06-22T02:42:39;95654.50;;;24.15;55.36
73383;BME280;61600;48.126;11.542;2023-06-22T02:45:05;95661.72;;;24.19;54.84
73383;BME280;61600;48.126;11.542;2023-06-22T02:47:31;95669.34;;;24.03;55.32
73383;BME280;61600;48.126;11.542;2023-06-22T02:49:57;95664.91;;;23.99;55.65
73383;BME280;61600;48.126;11.542;2023-06-22T02:52:23;95673.41;;;23.86;55.10
73383;BME280;61600;48.126;11.542;2023-06-22T02:54:49;95668.72;;;23.91;55.33
73383;BME280;61600;48.126;11.542;2023-06-22T02:57:14;95663.31;;;23.75;55.54
73383;BME280;61600;48.126;11.542;2023-06-22T02:59:40;95652.25;;;23.78;55.77
73383;BME280;61600;48.126;11.542;2023-06-22T03:02:08;95655.59;;;23.87;55.67
73383;BME280;61600;48.126;11.542;2023-06-22T03:04:37;95644.75;;;23.82;55.30
73383;BME280;61600;48.126;11.542;2023-06-22T03:07:03;95648.53;;;23.71;55.81
73383;BME280;61600;48.126;11.542;2023-06-22T03:09:29;95642.28;;;23.55;56.36
73383;BME280;61600;48.126;11.542;2023-06-22T03:11:55;95644.09;;;23.66;55.97
73383;BME280;61600;48.126;11.542;2023-06-22T03:14:21;95653.25;;;23.48;56.03
73383;BME280;61600;48.126;11.542;2023-06-22T03:16:46;95661.28;;;23.53;56.22
73383;BME280;61600;48.126;11.542;2023-06-22T03:19:12;95642.78;;;23.60;55.83
73383;BME280;61600;48.126;11.542;2023-06-22T03:21:39;95649.88;;;23.58;56.45
73383;BME280;61600;48.126;11.542;2023-06-22T03:24:08;95646.09;;;23.47;56.17
73383;BME280;61600;48.126;11.542;2023-06-22T03:26:34;95639.44;;;23.51;56.81
73383;BME280;61600;48.126;11.542;2023-06-22T03:29:00;95637.72;;;23.66;55.73
73383;BME280;61600;48.126;11.542;2023-06-22T03:31:25;95631.97;;;23.55;56.18
73383;BME280;61600;48.126;11.542;2023-06-22T03:33:52;95641.25;;;23.63;55.73
73383;BME280;61600;48.126;11.542;2023-06-22T03:36:18;95640.75;;;23.80;55.80
73383;BME280;61600;48.126;11.542;2023-06-22T03:38:48;95645.97;;;23.81;55.22
73383;BME280;61600;48.126;11.542;2023-06-22T03:41:15;95643.97;;;23.82;55.60
73383;BME280;61600;48.126;11.542;2023-06-22T03:43:41;95641.91;;;23.79;56.25
73383;BME280;61600;48.126;11.542;2023-06-22T03:46:07;95657.97;;;23.66;55.93
73383;BME280;61600;48.126;11.542;2023-06-22T03:48:33;95651.69;;;23.69;56.32
73383;BME280;61600;48.126;11.542;2023-06-22T03:51:00;95641.00;;;23.71;56.52
73383;BME280;61600;48.126;11.542;2023-06-22T03:53:25;95645.38;;;23.72;55.71
73383;BME280;61600;48.126;11.542;2023-06-22T03:55:52;95651.94;;;23.61;56.28
73383;BME280;61600;48.126;11.542;2023-06-22T03:58:19;95644.88;;;23.67;56.64
73383;BME280;61600;48.126;11.542;2023-06-22T04:00:47;95657.13;;;23.85;55.92
73383;BME280;61600;48.126;11.542;2023-06-22T04:03:14;95658.59;;;23.79;55.54
73383;BME280;61600;48.126;11.542;2023-06-22T04:05:40;95658.78;;;23.67;56.29
73383;BME280;61600;48.126;11.542;2023-06-22T04:08:06;95661.44;;;23.60;56.37
73383;BME280;61600;48.126;11.542;2023-06-22T04:10:32;95666.16;;;23.78;56.11
73383;BME280;61600;48.126;11.542;2023-06-22T04:12:58;95658.84;;;23.70;56.82
73383;BME280;61600;48.126;11.542;2023-06-22T04:15:24;95665.63;;;23.73;56.25
73383;BME280;61600;48.126;11.542;2023-06-22T04:17:49;95661.50;;;23.86;56.09
73383;BME280;61600;48.126;11.542;2023-06-22T04:20:15;95661.88;;;23.84;55.63
73383;BME280;61600;48.126;11.542;2023-06-22T04:22:41;95663.78;;;23.80;56.24
73383;BME280;61600;48.126;11.542;2023-06-22T04:25:07;95660.47;;;23.71;56.18
73383;BME280;61600;48.126;11.542;2023-06-22T04:27:33;95660.00;;;23.69;56.89
73383;BME280;61600;48.126;11.542;2023-06-22T04:30:09;95652.19;;;23.75;56.65
73383;BME280;61600;48.126;11.542;2023-06-22T04:32:35;95656.56;;;23.76;56.02
73383;BME280;61600;48.126;11.542;2023-06-22T04:35:03;95654.38;;;23.66;56.94
73383;BME280;61600;48.126;11.542;2023-06-22T04:37:33;95657.47;;;23.61;57.36
73383;BME280;61600;48.126;11.542;2023-06-22T04:39:59;95656.25;;;23.81;56.64
73383;BME280;61600;48.126;11.542;2023-06-22T04:42:26;95654.59;;;23.99;57.00
73383;BME280;61600;48.126;11.542;2023-06-22T04:44:53;95642.91;;;23.90;56.84
73383;BME280;61600;48.126;11.542;2023-06-22T04:47:18;95645.75;;;23.94;57.10
73383;BME280;61600;48.126;11.542;2023-06-22T04:49:44;95653.84;;;24.02;56.37
73383;BME280;61600;48.126;11.542;2023-06-22T04:52:11;95648.59;;;23.97;56.57
73383;BME280;61600;48.126;11.542;2023-06-22T04:54:39;95643.84;;;23.98;57.05
73383;BME280;61600;48.126;11.542;2023-06-22T04:57:13;95640.88;;;24.10;56.46
73383;BME280;61600;48.126;11.542;2023-06-22T04:59:40;95647.63;;;24.58;55.70
73383;BME280;61600;48.126;11.542;2023-06-22T05:02:07;95647.09;;;24.75;55.48
73383;BME280;61600;48.126;11.542;2023-06-22T05:04:33;95643.00;;;24.95;53.98
73383;BME280;61600;48.126;11.542;2023-06-22T05:07:01;95635.41;;;25.22;53.17
73383;BME280;61600;48.126;11.542;2023-06-22T05:09:28;95635.63;;;25.40;52.79
73383;BME280;61600;48.126;11.542;2023-06-22T05:11:54;95638.16;;;25.52;52.66
73383;BME280;61600;48.126;11.542;2023-06-22T05:14:22;95635.38;;;25.52;52.71
73383;BME280;61600;48.126;11.542;2023-06-22T05:16:48;95634.63;;;25.55;53.03
73383;BME280;61600;48.126;11.542;2023-06-22T05:19:14;95632.41;;;25.38;53.45
73383;BME280;61600;48.126;11.542;2023-06-22T05:21:40;95633.97;;;25.65;53.00
73383;BME280;61600;48.126;11.542;2023-06-22T05:24:06;95620.03;;;25.65;52.85
73383;BME280;61600;48.126;11.542;2023-06-22T05:26:33;95628.88;;;25.74;52.54
73383;BME280;61600;48.126;11.542;2023-06-22T05:29:00;95631.38;;;25.90;52.11
73383;BME280;61600;48.126;11.542;2023-06-22T05:31:28;95619.56;;;26.00;51.51
73383;BME280;61600;48.126;11.542;2023-06-22T05:33:54;95632.56;;;25.85;52.63
73383;BME280;61600;48.126;11.542;2023-06-22T05:36:20;95629.53;;;26.04;52.07
73383;BME280;61600;48.126;11.542;2023-06-22T05:38:47;95624.78;;;26.08;51.98
73383;BME280;61600;48.126;11.542;2023-06-22T05:41:13;95619.25;;;26.12;51.66
73383;BME280;61600;48.126;11.542;2023-06-22T05:43:39;95625.13;;;26.00;51.74
73383;BME280;61600;48.126;11.542;2023-06-22T05:46:05;95616.19;;;26.20;51.84
73383;BME280;61600;48.126;11.542;2023-06-22T05:48:31;95615.78;;;26.22;51.53
73383;BME280;61600;48.126;11.542;2023-06-22T05:50:58;95620.97;;;26.23;51.66
73383;BME280;61600;48.126;11.542;2023-06-22T05:53:24;95623.69;;;26.16;51.68
73383;BME280;61600;48.126;11.542;2023-06-22T05:55:50;95621.00;;;26.27;51.90
73383;BME280;61600;48.126;11.542;2023-06-22T05:58:15;95618.59;;;26.25;51.65
73383;BME280;61600;48.126;11.542;2023-06-22T06:00:42;95624.19;;;26.29;51.12
73383;BME280;61600;48.126;11.542;2023-06-22T06:03:12;95633.06;;;26.38;51.98
73383;BME280;61600;48.126;11.542;2023-06-22T06:05:38;95634.28;;;26.44;51.28
73383;BME280;61600;48.126;11.542;2023-06-22T06:08:05;95628.84;;;26.62;50.45
73383;BME280;61600;48.126;11.542;2023-06-22T06:10:32;95631.28;;;26.70;50.68
73383;BME280;61600;48.126;11.542;2023-06-22T06:12:58;95636.91;;;26.77;50.78
73383;BME280;61600;48.126;11.542;2023-06-22T06:15:24;95624.50;;;26.17;52.31
73383;BME280;61600;48.126;11.542;2023-06-22T06:17:52;95627.22;;;26.61;50.86
73383;BME280;61600;48.126;11.542;2023-06-22T06:20:19;95622.13;;;26.73;50.22
73383;BME280;61600;48.126;11.542;2023-06-22T06:22:46;95621.81;;;26.86;49.98
73383;BME280;61600;48.126;11.542;2023-06-22T06:25:12;95615.44;;;26.85;50.29
73383;BME280;61600;48.126;11.542;2023-06-22T06:27:45;95617.94;;;27.04;49.66
73383;BME280;61600;48.126;11.542;2023-06-22T06:30:12;95609.63;;;27.18;49.60
73383;BME280;61600;48.126;11.542;2023-06-22T06:32:43;95602.00;;;27.08;49.64
73383;BME280;61600;48.126;11.542;2023-06-22T06:35:12;95613.53;;;27.03;49.92
73383;BME280;61600;48.126;11.542;2023-06-22T06:37:40;95604.78;;;27.01;49.47
73383;BME280;61600;48.126;11.542;2023-06-22T06:40:07;95598.38;;;27.01;49.94
73383;BME280;61600;48.126;11.542;2023-06-22T06:42:40;95603.63;;;27.16;49.24
73383;BME280;61600;48.126;11.542;2023-06-22T06:45:33;95600.41;;;27.11;49.64
73383;BME280;61600;48.126;11.542;2023-06-22T06:48:00;95603.59;;;27.09;49.60
73383;BME280;61600;48.126;11.542;2023-06-22T06:50:27;95606.44;;;27.20;49.33
73383;BME280;61600;48.126;11.542;2023-06-22T06:52:53;95603.69;;;27.34;48.95
73383;BME280;61600;48.126;11.542;2023-06-22T06:55:19;95609.69;;;27.36;49.04
73383;BME280;61600;48.126;11.542;2023-06-22T06:57:46;95600.53;;;27.43;48.97
73383;BME280;61600;48.126;11.542;2023-06-22T07:00:14;95598.97;;;27.49;48.51
73383;BME280;61600;48.126;11.542;2023-06-22T07:02:42;95598.63;;;27.61;48.40
73383;BME280;61600;48.126;11.542;2023-06-22T07:05:09;95607.81;;;27.61;48.66
73383;BME280;61600;48.126;11.542;2023-06-22T07:07:35;95607.03;;;27.71;48.18
73383;BME280;61600;48.126;11.542;2023-06-22T07:10:02;95603.44;;;27.82;48.02
73383;BME280;61600;48.126;11.542;2023-06-22T07:12:29;95610.63;;;27.75;47.68
73383;BME280;61600;48.126;11.542;2023-06-22T07:15:02;95602.25;;;27.83;47.98
73383;BME280;61600;48.126;11.542;2023-06-22T07:17:28;95596.66;;;27.86;48.25
73383;BME280;61600;48.126;11.542;2023-06-22T07:19:53;95604.28;;;27.96;47.67
73383;BME280;61600;48.126;11.542;2023-06-22T07:22:20;95603.06;;;28.01;47.61
73383;BME280;61600;48.126;11.542;2023-06-22T07:24:46;95597.88;;;27.92;47.59
73383;BME280;61600;48.126;11.542;2023-06-22T07:27:12;95589.09;;;28.08;47.42
73383;BME280;61600;48.126;11.542;2023-06-22T07:29:38;95594.31;;;28.23;47.06
73383;BME280;61600;48.126;11.542;2023-06-22T07:32:08;95591.13;;;28.36;46.69
73383;BME280;61600;48.126;11.542;2023-06-22T07:34:34;95590.31;;;28.28;47.25
73383;BME280;61600;48.126;11.542;2023-06-22T07:37:00;95588.72;;;28.41;46.64
73383;BME280;61600;48.126;11.542;2023-06-22T07:39:26;95580.69;;;28.50;46.87
73383;BME280;61600;48.126;11.542;2023-06-22T07:41:53;95575.09;;;28.54;46.19
73383;BME280;61600;48.126;11.542;2023-06-22T07:44:19;95567.09;;;28.59;46.00
73383;BME280;61600;48.126;11.542;2023-06-22T07:46:45;95570.72;;;28.67;45.78
73383;BME280;61600;48.126;11.542;2023-06-22T07:49:11;95575.06;;;28.75;45.72
73383;BME280;61600;48.126;11.542;2023-06-22T07:51:37;95567.03;;;28.91;45.48
73383;BME280;61600;48.126;11.542;2023-06-22T07:54:03;95570.19;;;28.97;45.27
73383;BME280;61600;48.126;11.542;2023-06-22T07:56:28;95568.19;;;29.01;45.01
73383;BME280;61600;48.126;11.542;2023-06-22T07:58:54;95564.97;;;29.13;44.87
73383;BME280;61600;48.126;11.542;2023-06-22T08:01:20;95569.31;;;29.21;44.77
73383;BME280;61600;48.126;11.542;2023-06-22T08:03:49;95564.91;;;29.23;44.69
73383;BME280;61600;48.126;11.542;2023-06-22T08:06:15;95564.50;;;29.29;44.45
73383;BME280;61600;48.126;11.542;2023-06-22T08:08:42;95574.09;;;29.20;44.75
73383;BME280;61600;48.126;11.542;2023-06-22T08:11:09;95564.88;;;29.34;44.08
73383;BME280;61600;48.126;11.542;2023-06-22T08:13:35;95572.41;;;29.48;44.14
73383;BME280;61600;48.126;11.542;2023-06-22T08:16:00;95567.59;;;29.52;44.08
73383;BME280;61600;48.126;11.542;2023-06-22T08:18:26;95565.09;;;29.68;43.77
73383;BME280;61600;48.126;11.542;2023-06-22T08:20:52;95558.56;;;29.82;43.38
73383;BME280;61600;48.126;11.542;2023-06-22T08:23:18;95560.44;;;30.02;42.93
73383;BME280;61600;48.126;11.542;2023-06-22T08:25:49;95563.97;;;30.13;42.94
73383;BME280;61600;48.126;11.542;2023-06-22T08:28:15;95551.44;;;30.29;42.31
73383;BME280;61600;48.126;11.542;2023-06-22T08:30:41;95552.56;;;30.35;41.90
73383;BME280;61600;48.126;11.542;2023-06-22T08:33:07;95554.94;;;30.43;42.16
73383;BME280;61600;48.126;11.542;2023-06-22T08:35:33;95554.41;;;30.55;41.56
73383;BME280;61600;48.126;11.542;2023-06-22T08:37:58;95560.28;;;30.68;41.33
73383;BME280;61600;48.126;11.542;2023-06-22T08:40:25;95562.28;;;30.71;41.20
73383;BME280;61600;48.126;11.542;2023-06-22T08:42:51;95556.53;;;30.82;40.85
73383;BME280;61600;48.126;11.542;2023-06-22T08:45:17;95552.03;;;30.88;40.94
73383;BME280;61600;48.126;11.542;2023-06-22T08:47:43;95558.59;;;30.78;41.06
73383;BME280;61600;48.126;11.542;2023-06-22T08:50:09;95558.00;;;30.93;40.38
73383;BME280;61600;48.126;11.542;2023-06-22T08:52:37;95549.19;;;30.91;40.45
73383;BME280;61600;48.126;11.542;2023-06-22T08:55:04;95555.56;;;30.99;40.06
73383;BME280;61600;48.126;11.542;2023-06-22T08:57:30;95556.28;;;31.06;40.17
73383;BME280;61600;48.126;11.542;2023-06-22T08:59:59;95550.13;;;31.15;39.87
73383;BME280;61600;48.126;11.542;2023-06-22T09:02:26;95547.81;;;31.10;39.75
73383;BME280;61600;48.126;11.542;2023-06-22T09:04:59;95538.31;;;31.31;39.46
73383;BME280;61600;48.126;11.542;2023-06-22T09:07:24;95537.44;;;31.34;39.26
73383;BME280;61600;48.126;11.542;2023-06-22T09:09:51;95540.25;;;31.34;39.37
73383;BME280;61600;48.126;11.542;2023-06-22T09:12:18;95544.69;;;31.35;38.94
73383;BME280;61600;48.126;11.542;2023-06-22T09:14:46;95543.28;;;31.46;38.48
73383;BME280;61600;48.126;11.542;2023-06-22T09:17:14;95539.56;;;31.56;38.61
73383;BME280;61600;48.126;11.542;2023-06-22T09:19:40;95547.06;;;31.66;38.12
73383;BME280;61600;48.126;11.542;2023-06-22T09:22:06;95539.25;;;31.78;38.12
73383;BME280;61600;48.126;11.542;2023-06-22T09:24:32;95536.44;;;31.78;38.02
73383;BME280;61600;48.126;11.542;2023-06-22T09:26:58;95538.53;;;31.74;37.69
73383;BME280;61600;48.126;11.542;2023-06-22T09:29:24;95538.91;;;31.99;37.94
73383;BME280;61600;48.126;11.542;2023-06-22T09:31:51;95532.88;;;32.00;37.78
73383;BME280;61600;48.126;11.542;2023-06-22T09:34:19;95536.84;;;32.03;37.77
73383;BME280;61600;48.126;11.542;2023-06-22T09:36:46;95536.41;;;32.08;37.59
73383;BME280;61600;48.126;11.542;2023-06-22T09:39:12;95529.41;;;32.16;37.54
73383;BME280;61600;48.126;11.542;2023-06-22T09:41:38;95534.69;;;32.14;37.33
73383;BME280;61600;48.126;11.542;2023-06-22T09:44:04;95528.00;;;32.28;37.43
73383;BME280;61600;48.126;11.542;2023-06-22T09:46:29;95527.41;;;32.40;37.23
73383;BME280;61600;48.126;11.542;2023-06-22T09:48:55;95522.31;;;32.54;37.14
73383;BME280;61600;48.126;11.542;2023-06-22T09:51:23;95519.81;;;32.60;37.01
73383;BME280;61600;48.126;11.542;2023-06-22T09:53:50;95518.75;;;32.74;36.74
73383;BME280;61600;48.126;11.542;2023-06-22T09:56:16;95506.16;;;32.58;36.31
73383;BME280;61600;48.126;11.542;2023-06-22T09:58:42;95506.41;;;32.67;36.84
73383;BME280;61600;48.126;11.542;2023-06-22T10:01:10;95504.72;;;32.70;36.77
73383;BME280;61600;48.126;11.542;2023-06-22T10:03:36;95508.81;;;32.89;36.68
73383;BME280;61600;48.126;11.542;2023-06-22T10:06:02;95499.09;;;33.09;35.82
73383;BME280;61600;48.126;11.542;2023-06-22T10:08:28;95501.13;;;33.09;35.89
73383;BME280;61600;48.126;11.542;2023-06-22T10:10:54;95495.88;;;33.11;36.13
73383;BME280;61600;48.126;11.542;2023-06-22T10:13:20;95492.81;;;33.22;35.57
73383;BME280;61600;48.126;11.542;2023-06-22T10:18:14;95483.88;;;33.43;36.12
73383;BME280;61600;48.126;11.542;2023-06-22T10:20:40;95491.19;;;33.60;35.67
73383;BME280;61600;48.126;11.542;2023-06-22T10:23:05;95490.00;;;33.77;34.92
73383;BME280;61600;48.126;11.542;2023-06-22T10:25:31;95487.09;;;33.81;34.63
73383;BME280;61600;48.126;11.542;2023-06-22T10:27:57;95487.38;;;34.02;34.50
73383;BME280;61600;48.126;11.542;2023-06-22T10:30:26;95491.75;;;34.03;34.86
73383;BME280;61600;48.126;11.542;2023-06-22T10:32:54;95487.63;;;34.24;34.40
73383;BME280;61600;48.126;11.542;2023-06-22T10:35:21;95477.59;;;34.23;34.18
73383;BME280;61600;48.126;11.542;2023-06-22T10:37:48;95469.59;;;34.34;33.97
73383;BME280;61600;48.126;11.542;2023-06-22T10:40:16;95471.28;;;34.48;33.97
73383;BME280;61600;48.126;11.542;2023-06-22T10:42:50;95475.03;;;34.74;33.20
73383;BME280;61600;48.126;11.542;2023-06-22T10:45:17;95468.53;;;34.89;32.79
73383;BME280;61600;48.126;11.542;2023-06-22T10:47:42;95460.31;;;35.07;32.13
73383;BME280;61600;48.126;11.542;2023-06-22T10:50:08;95461.66;;;35.32;32.45
73383;BME280;61600;48.126;11.542;2023-06-22T10:52:34;95458.16;;;35.53;31.88
73383;BME280;61600;48.126;11.542;2023-06-22T10:55:00;95464.38;;;35.86;31.82
73383;BME280;61600;48.126;11.542;2023-06-22T10:57:26;95460.84;;;36.07;31.62
73383;BME280;61600;48.126;11.542;2023-06-22T10:59:52;95457.69;;;36.18;31.05
73383;BME280;61600;48.126;11.542;2023-06-22T11:02:18;95454.03;;;36.30;30.44
73383;BME280;61600;48.126;11.542;2023-06-22T11:04:44;95449.38;;;36.36;29.95
73383;BME280;61600;48.126;11.542;2023-06-22T11:07:11;95452.94;;;36.15;30.39
73383;BME280;61600;48.126;11.542;2023-06-22T11:09:37;95451.16;;;36.08;30.74
73383;BME280;61600;48.126;11.542;2023-06-22T11:12:05;95451.25;;;35.92;30.82
73383;BME280;61600;48.126;11.542;2023-06-22T11:14:32;95451.81;;;35.99;30.50
73383;BME280;61600;48.126;11.542;2023-06-22T11:16:59;95449.19;;;36.05;30.80
73383;BME280;61600;48.126;11.542;2023-06-22T11:19:25;95454.19;;;36.01;30.79
73383;BME280;61600;48.126;11.542;2023-06-22T11:21:51;95453.19;;;35.95;31.29
73383;BME280;61600;48.126;11.542;2023-06-22T11:24:17;95446.03;;;36.03;31.08
73383;BME280;61600;48.126;11.542;2023-06-22T11:26:43;95448.16;;;36.24;30.60
73383;BME280;61600;48.126;11.542;2023-06-22T11:29:09;95440.31;;;36.41;30.32
73383;BME280;61600;48.126;11.542;2023-06-22T11:31:35;95442.22;;;36.44;30.59
73383;BME280;61600;48.126;11.542;2023-06-22T11:34:21;95433.78;;;36.66;29.94
73383;BME280;61600;48.126;11.542;2023-06-22T11:36:47;95432.59;;;36.97;30.08
73383;BME280;61600;48.126;11.542;2023-06-22T11:39:13;95428.47;;;36.98;29.67
73383;BME280;61600;48.126;11.542;2023-06-22T11:41:40;95420.38;;;37.10;29.98
73383;BME280;61600;48.126;11.542;2023-06-22T11:44:07;95408.84;;;37.26;30.00
73383;BME280;61600;48.126;11.542;2023-06-22T11:46:34;95409.28;;;37.24;29.97
73383;BME280;61600;48.126;11.542;2023-06-22T11:49:01;95414.72;;;37.10;30.38
73383;BME280;61600;48.126;11.542;2023-06-22T11:51:32;95404.53;;;36.99;30.60
73383;BME280;61600;48.126;11.542;2023-06-22T11:53:59;95409.69;;;37.14;30.23
73383;BME280;61600;48.126;11.542;2023-06-22T11:56:25;95398.34;;;37.44;29.71
73383;BME280;61600;48.126;11.542;2023-06-22T11:58:53;95395.25;;;37.51;29.90
73383;BME280;61600;48.126;11.542;2023-06-22T12:06:10;95390.13;;;37.68;29.83
73383;BME280;61600;48.126;11.542;2023-06-22T12:08:37;95401.66;;;37.83;29.68
73383;BME280;61600;48.126;11.542;2023-06-22T12:11:04;95396.22;;;37.97;29.44
73383;BME280;61600;48.126;11.542;2023-06-22T12:13:31;95381.25;;;38.06;28.94
73383;BME280;61600;48.126;11.542;2023-06-22T12:18:22;95377.63;;;38.33;29.00
73383;BME280;61600;48.126;11.542;2023-06-22T12:20:53;95374.50;;;38.85;28.44
73383;BME280;61600;48.126;11.542;2023-06-22T12:23:19;95372.53;;;39.10;27.67
73383;BME280;61600;48.126;11.542;2023-06-22T12:25:45;95362.56;;;39.32;27.34
73383;BME280;61600;48.126;11.542;2023-06-22T12:28:11;95363.34;;;39.33;27.10
73383;BME280;61600;48.126;11.542;2023-06-22T12:30:37;95357.06;;;39.62;26.65
73383;BME280;61600;48.126;11.542;2023-06-22T12:33:03;95356.78;;;39.83;26.46
73383;BME280;61600;48.126;11.542;2023-06-22T12:35:30;95356.69;;;39.36;26.82
73383;BME280;61600;48.126;11.542;2023-06-22T12:37:56;95351.81;;;39.27;27.69
73383;BME280;61600;48.126;11.542;2023-06-22T12:40:22;95357.88;;;39.02;27.44
73383;BME280;61600;48.126;11.542;2023-06-22T12:42:49;95352.53;;;38.86;28.22
73383;BME280;61600;48.126;11.542;2023-06-22T12:45:15;95348.13;;;38.67;28.11
73383;BME280;61600;48.126;11.542;2023-06-22T12:47:41;95343.22;;;38.40;28.95
73383;BME280;61600;48.126;11.542;2023-06-22T12:50:07;95341.78;;;38.35;29.08
73383;BME280;61600;48.126;11.542;2023-06-22T12:52:36;95344.63;;;38.26;29.17
73383;BME280;61600;48.126;11.542;2023-06-22T12:55:02;95342.59;;;38.45;28.84
73383;BME280;61600;48.126;11.542;2023-06-22T12:57:28;95342.59;;;38.54;28.73
73383;BME280;61600;48.126;11.542;2023-06-22T12:59:54;95340.88;;;38.47;28.79
73383;BME280;61600;48.126;11.542;2023-06-22T13:02:19;95347.63;;;38.32;28.68
73383;BME280;61600;48.126;11.542;2023-06-22T13:04:45;95339.25;;;38.28;28.64